createdAt,value
2018-07-23T00:01:05.498Z,19.50
2018-07-23T00:05:09.081Z,19.40
2018-07-23T00:09:24.758Z,19.50
2018-07-23T00:13:28.766Z,19.60
2018-07-23T00:17:32.910Z,19.80
2018-07-23T00:21:36.714Z,19.50
2018-07-23T00:25:40.873Z,19.30
2018-07-23T00:29:45.638Z,19.20
2018-07-23T00:33:52.265Z,19.10
2018-07-23T00:37:55.970Z,19.10
2018-07-23T00:41:59.506Z,19.10
2018-07-23T00:46:04.232Z,19.00
2018-07-23T00:50:08.039Z,19.00
2018-07-23T00:54:12.680Z,18.90
2018-07-23T00:58:16.646Z,18.80
2018-07-23T01:02:23.534Z,18.80
2018-07-23T01:06:27.074Z,19.30
2018-07-23T01:10:30.815Z,18.80
2018-07-23T01:14:34.465Z,18.60
2018-07-23T01:18:38.743Z,18.70
2018-07-23T01:22:42.959Z,18.80
2018-07-23T01:26:46.705Z,18.80
2018-07-23T01:30:50.846Z,18.70
2018-07-23T01:35:00.776Z,18.70
2018-07-23T01:39:07.832Z,18.40
2018-07-23T01:43:11.457Z,18.50
2018-07-23T01:47:15.070Z,18.60
2018-07-23T01:51:18.992Z,18.70
2018-07-23T01:55:23.525Z,18.80
2018-07-23T01:59:27.572Z,18.30
2018-07-23T02:03:31.529Z,18.00
2018-07-23T02:07:35.281Z,18.10
2018-07-23T02:11:39.110Z,17.90
2018-07-23T02:15:42.793Z,17.80
2018-07-23T02:19:46.401Z,18.40
2018-07-23T02:23:49.975Z,18.40
2018-07-23T02:27:53.535Z,18.10
2018-07-23T02:31:57.066Z,18.10
2018-07-23T02:36:00.569Z,18.10
2018-07-23T02:40:05.467Z,18.20
2018-07-23T02:44:09.943Z,17.80
2018-07-23T02:48:13.618Z,17.50
2018-07-23T02:52:17.145Z,17.30
2018-07-23T02:56:21.045Z,17.20
2018-07-23T03:00:24.635Z,17.40
2018-07-23T03:04:28.182Z,17.50
2018-07-23T03:08:31.941Z,17.60
2018-07-23T03:12:35.668Z,17.40
2018-07-23T03:16:39.368Z,17.20
2018-07-23T03:20:42.950Z,17.10
2018-07-23T03:24:46.773Z,17.40
2018-07-23T03:28:50.354Z,17.50
2018-07-23T03:32:53.875Z,17.40
2018-07-23T03:36:58.694Z,17.30
2018-07-23T03:41:02.282Z,17.40
2018-07-23T03:45:06.587Z,17.20
2018-07-23T03:49:10.109Z,17.30
2018-07-23T03:53:14.785Z,17.30
2018-07-23T03:57:18.348Z,17.20
2018-07-23T04:01:21.870Z,17.10
2018-07-23T04:05:25.417Z,17.10
2018-07-23T04:09:28.972Z,17.20
2018-07-23T04:13:32.491Z,17.30
2018-07-23T04:17:36.109Z,17.10
2018-07-23T04:21:40.120Z,17.00
2018-07-23T04:25:43.701Z,16.90
2018-07-23T04:29:47.226Z,16.90
2018-07-23T04:33:51.839Z,16.70
2018-07-23T04:37:55.539Z,16.80
2018-07-23T04:41:59.247Z,16.80
2018-07-23T04:46:02.725Z,17.00
2018-07-23T04:50:06.724Z,17.10
2018-07-23T04:54:10.285Z,17.10
2018-07-23T04:58:13.881Z,17.30
2018-07-23T05:02:17.385Z,17.50
2018-07-23T05:06:21.461Z,17.70
2018-07-23T05:10:25.606Z,17.80
2018-07-23T05:14:30.254Z,18.10
2018-07-23T05:18:33.756Z,18.20
2018-07-23T05:22:38.374Z,18.20
2018-07-23T05:26:42.870Z,18.40
2018-07-23T05:30:46.501Z,18.40
2018-07-23T05:34:51.322Z,18.50
2018-07-23T05:38:56.450Z,18.70
2018-07-23T05:43:00.173Z,18.90
2018-07-23T05:47:04.155Z,18.90
2018-07-23T05:51:07.852Z,19.00
2018-07-23T05:55:13.605Z,19.20
2018-07-23T05:59:17.194Z,19.20
2018-07-23T06:03:20.962Z,19.40
2018-07-23T06:07:25.004Z,19.60
2018-07-23T06:11:28.840Z,19.80
2018-07-23T06:15:32.550Z,20.10
2018-07-23T06:19:36.295Z,20.30
2018-07-23T06:23:39.885Z,20.90
2018-07-23T06:27:43.575Z,21.80
2018-07-23T06:31:54.059Z,22.80
2018-07-23T06:35:59.747Z,23.50
2018-07-23T06:40:03.384Z,23.90
2018-07-23T06:44:07.453Z,24.30
2018-07-23T06:48:11.010Z,25.30
2018-07-23T06:52:14.658Z,26.00
2018-07-23T06:56:18.330Z,27.20
2018-07-23T07:00:21.990Z,27.60
2018-07-23T07:04:26.036Z,28.40
2018-07-23T07:08:29.613Z,28.70
2018-07-23T07:12:33.118Z,28.50
2018-07-23T07:16:36.798Z,28.60
2018-07-23T07:20:42.105Z,29.40
2018-07-23T07:24:45.857Z,29.10
2018-07-23T07:28:50.461Z,28.00
2018-07-23T07:32:54.471Z,28.30
2018-07-23T07:36:58.096Z,28.30
2018-07-23T07:41:02.698Z,29.50
2018-07-23T07:45:07.442Z,30.00
2018-07-23T07:49:11.606Z,29.50
2018-07-23T07:53:15.162Z,29.90
2018-07-23T07:57:21.000Z,30.10
2018-07-23T08:01:24.557Z,29.80
2018-07-23T08:05:28.182Z,30.10
2018-07-23T08:09:31.790Z,29.60
2018-07-23T08:13:35.506Z,30.50
2018-07-23T08:21:42.290Z,30.50
2018-07-23T08:25:46.505Z,30.70
2018-07-23T08:33:53.502Z,30.80
2018-07-23T08:37:57.049Z,30.90
2018-07-23T08:42:00.686Z,30.80
2018-07-23T08:46:04.586Z,30.70
2018-07-23T08:50:08.082Z,30.30
2018-07-23T08:58:15.033Z,30.30
2018-07-23T09:02:19.092Z,30.70
2018-07-23T09:06:22.629Z,30.70
2018-07-23T09:10:26.272Z,30.60
2018-07-23T09:14:29.849Z,30.50
2018-07-23T09:18:33.701Z,29.90
2018-07-23T09:22:40.667Z,30.30
2018-07-23T09:26:44.294Z,30.90
2018-07-23T09:30:51.360Z,31.40
2018-07-23T09:34:55.130Z,31.90
2018-07-23T09:38:58.714Z,32.00
2018-07-23T09:43:04.072Z,32.00
2018-07-23T09:47:07.657Z,31.40
2018-07-23T09:51:12.222Z,31.70
2018-07-23T09:55:19.245Z,32.00
2018-07-23T09:59:22.825Z,31.90
2018-07-23T10:03:26.713Z,32.00
2018-07-23T10:07:33.660Z,31.20
2018-07-23T10:11:37.773Z,31.00
2018-07-23T10:15:41.416Z,30.40
2018-07-23T10:19:44.995Z,29.80
2018-07-23T10:23:48.672Z,30.50
2018-07-23T10:27:58.175Z,30.80
2018-07-23T10:32:05.511Z,31.10
2018-07-23T10:36:09.225Z,32.00
2018-07-23T10:40:12.784Z,32.10
2018-07-23T10:44:20.201Z,31.00
2018-07-23T10:48:23.960Z,30.40
2018-07-23T10:52:27.457Z,30.70
2018-07-23T10:56:31.102Z,31.40
2018-07-23T11:00:34.725Z,31.00
2018-07-23T11:04:39.340Z,30.50
2018-07-23T11:08:44.936Z,30.10
2018-07-23T11:16:55.103Z,31.00
2018-07-23T11:20:59.135Z,31.50
2018-07-23T11:25:38.220Z,32.20
2018-07-23T11:29:06.534Z,32.20
2018-07-23T11:33:10.099Z,30.70
2018-07-23T11:37:14.974Z,30.10
2018-07-23T11:41:23.895Z,30.00
2018-07-23T11:45:27.556Z,29.60
2018-07-23T11:53:38.212Z,29.90
2018-07-23T11:57:47.422Z,30.30
2018-07-23T12:01:51.762Z,30.20
2018-07-23T12:05:55.350Z,30.40
2018-07-23T12:09:58.982Z,29.60
2018-07-23T12:14:06.945Z,29.90
2018-07-23T12:18:10.697Z,30.00
2018-07-23T12:22:14.350Z,29.40
2018-07-23T12:26:20.976Z,29.40
2018-07-23T12:30:25.793Z,29.20
2018-07-23T12:34:31.595Z,28.00
2018-07-23T12:42:39.755Z,27.90
2018-07-23T12:46:43.396Z,28.10
2018-07-23T12:50:55.278Z,27.60
2018-07-23T12:55:00.867Z,28.00
2018-07-23T12:59:04.527Z,29.10
2018-07-23T13:03:08.258Z,27.90
2018-07-23T13:07:13.821Z,27.50
2018-07-23T13:11:28.932Z,27.30
2018-07-23T13:15:32.755Z,27.70
2018-07-23T13:19:36.402Z,29.30
2018-07-23T13:23:40.102Z,29.20
2018-07-23T13:27:43.655Z,28.50
2018-07-23T13:31:52.443Z,27.90
2018-07-23T13:35:57.044Z,27.90
2018-07-23T13:40:00.706Z,27.60
2018-07-23T13:44:04.381Z,28.10
2018-07-23T13:48:14.307Z,27.70
2018-07-23T13:52:17.969Z,27.30
2018-07-23T13:56:21.897Z,27.90
2018-07-23T14:00:25.457Z,27.80
2018-07-23T14:04:30.151Z,27.60
2018-07-23T14:08:33.755Z,27.90
2018-07-23T14:12:37.434Z,28.20
2018-07-23T14:16:42.018Z,27.60
2018-07-23T14:20:45.595Z,27.50
2018-07-23T14:24:51.124Z,27.30
2018-07-23T14:28:54.695Z,27.00
2018-07-23T14:32:58.234Z,27.20
2018-07-23T14:37:01.869Z,27.50
2018-07-23T14:41:05.410Z,27.30
2018-07-23T14:45:08.970Z,26.70
2018-07-23T14:53:15.894Z,26.20
2018-07-23T14:57:19.361Z,26.40
2018-07-23T15:01:22.881Z,27.30
2018-07-23T15:05:26.534Z,28.00
2018-07-23T15:09:30.672Z,27.80
2018-07-23T15:13:34.302Z,27.90
2018-07-23T15:17:37.902Z,27.50
2018-07-23T15:21:41.414Z,27.60
2018-07-23T15:25:44.969Z,27.10
2018-07-23T15:29:48.458Z,26.40
2018-07-23T15:34:01.642Z,26.20
2018-07-23T15:38:05.158Z,26.00
2018-07-23T15:42:08.787Z,26.10
2018-07-23T15:46:12.373Z,25.90
2018-07-23T15:50:15.915Z,25.90
2018-07-23T15:54:19.474Z,25.80
2018-07-23T15:58:24.120Z,25.80
2018-07-23T16:02:28.843Z,26.10
2018-07-23T16:06:42.740Z,26.30
2018-07-23T16:10:46.680Z,26.20
2018-07-23T16:14:58.202Z,26.00
2018-07-23T16:19:03.034Z,25.90
2018-07-23T16:23:09.861Z,25.80
2018-07-23T16:27:13.488Z,26.00
2018-07-23T16:31:20.410Z,25.80
2018-07-23T16:35:24.042Z,25.80
2018-07-23T16:39:28.891Z,26.00
2018-07-23T16:43:32.533Z,25.90
2018-07-23T16:47:43.597Z,25.90
2018-07-23T16:51:53.362Z,25.80
2018-07-23T16:55:57.142Z,25.90
2018-07-23T17:00:02.831Z,26.20
2018-07-23T17:04:13.209Z,26.10
2018-07-23T17:08:19.918Z,25.90
2018-07-23T17:12:25.489Z,25.90
2018-07-23T17:16:40.056Z,25.70
2018-07-23T17:20:44.063Z,25.80
2018-07-23T17:24:58.718Z,25.90
2018-07-23T17:29:06.317Z,25.80
2018-07-23T17:33:12.072Z,25.90
2018-07-23T17:37:15.677Z,25.90
2018-07-23T17:41:20.270Z,25.70
2018-07-23T17:45:25.036Z,25.80
2018-07-23T17:49:32.567Z,25.90
2018-07-23T17:53:36.541Z,25.90
2018-07-23T17:57:40.277Z,26.00
2018-07-23T18:01:58.458Z,26.00
2018-07-23T18:06:02.204Z,25.90
2018-07-23T18:10:07.962Z,25.90
2018-07-23T18:14:13.494Z,25.70
2018-07-23T18:18:17.108Z,25.60
2018-07-23T18:26:24.877Z,25.60
2018-07-23T18:30:34.259Z,25.50
2018-07-23T18:34:40.329Z,25.50
2018-07-23T18:38:43.973Z,25.30
2018-07-23T18:46:57.263Z,25.20
2018-07-23T18:51:03.016Z,25.30
2018-07-23T18:55:06.769Z,25.20
2018-07-23T18:59:10.535Z,25.20
2018-07-23T19:03:15.143Z,25.10
2018-07-23T19:07:19.977Z,25.00
2018-07-23T19:11:24.806Z,24.90
2018-07-23T19:15:28.580Z,24.80
2018-07-23T19:19:32.221Z,24.80
2018-07-23T19:23:39.137Z,24.70
2018-07-23T19:27:46.486Z,24.60
2018-07-23T19:31:50.077Z,24.40
2018-07-23T19:35:53.717Z,24.30
2018-07-23T19:39:57.363Z,24.20
2018-07-23T19:44:04.837Z,24.10
2018-07-23T19:48:10.938Z,23.90
2018-07-23T19:52:14.536Z,23.90
2018-07-23T19:56:18.336Z,23.70
2018-07-23T20:00:22.220Z,23.50
2018-07-23T20:04:25.919Z,23.50
2018-07-23T20:08:30.640Z,23.40
2018-07-23T20:12:34.721Z,23.30
2018-07-23T20:16:38.710Z,23.10
2018-07-23T20:20:43.817Z,23.10
2018-07-23T20:24:47.361Z,23.00
2018-07-23T20:28:53.141Z,23.00
2018-07-23T20:33:00.775Z,22.90
2018-07-23T20:37:04.431Z,22.70
2018-07-23T20:41:08.905Z,22.60
2018-07-23T20:45:12.818Z,22.50
2018-07-23T20:49:16.474Z,22.50
2018-07-23T20:53:20.723Z,22.70
2018-07-23T20:57:24.526Z,22.50
2018-07-23T21:01:28.238Z,22.30
2018-07-23T21:05:32.883Z,22.20
2018-07-23T21:09:36.659Z,22.10
2018-07-23T21:13:40.883Z,22.10
2018-07-23T21:17:44.620Z,22.10
2018-07-23T21:21:54.061Z,22.00
2018-07-23T21:25:59.004Z,21.90
2018-07-23T21:30:02.646Z,21.80
2018-07-23T21:34:07.225Z,21.70
2018-07-23T21:38:12.031Z,21.60
2018-07-23T21:42:15.767Z,21.50
2018-07-23T21:46:23.269Z,21.50
2018-07-23T21:50:27.069Z,21.40
2018-07-23T21:54:31.625Z,21.30
2018-07-23T21:58:35.156Z,21.30
2018-07-23T22:06:46.101Z,21.10
2018-07-23T22:10:49.644Z,21.10
2018-07-23T22:15:00.474Z,21.10
2018-07-23T22:19:04.206Z,20.90
2018-07-23T22:23:07.960Z,20.90
2018-07-23T22:27:11.422Z,21.00
2018-07-23T22:31:14.985Z,20.80
2018-07-23T22:35:20.542Z,20.70
2018-07-23T22:39:24.113Z,20.90
2018-07-23T22:43:27.622Z,20.70
2018-07-23T22:47:31.609Z,20.60
2018-07-23T22:51:36.017Z,20.40
2018-07-23T22:55:41.590Z,20.30
2018-07-23T22:59:45.131Z,20.20
2018-07-23T23:03:49.104Z,20.20
2018-07-23T23:07:53.718Z,20.40
2018-07-23T23:11:57.354Z,20.40
2018-07-23T23:16:00.994Z,20.30
2018-07-23T23:20:04.620Z,20.20
2018-07-23T23:24:08.265Z,20.10
2018-07-23T23:28:12.002Z,20.10
2018-07-23T23:32:15.558Z,20.00
2018-07-23T23:36:19.309Z,20.20
2018-07-23T23:40:22.913Z,20.00
2018-07-23T23:44:26.466Z,19.80
2018-07-23T23:48:31.310Z,19.60
2018-07-23T23:52:34.907Z,19.60
2018-07-23T23:56:45.234Z,19.60
